Time;durP1;ratioP1;P1;durP2;ratioP2;P2;SDS_P1;SDS_P2;PMS_P1;PMS_P2;Temp;Humidity;BMP_temperature;BMP_pressure;BME280_temperature;BME280_humidity;BME280_pressure;Samples;Min_cycle;Max_cycle;Signal;HPM_P1;HPM_P2
2022/01/23 00:02:14;;;;;;;4.15;1.50;;;22.90;99.90;;;;;;5012993;28;20034;-66
2022/01/23 00:04:42;;;;;;;5.63;1.52;;;22.60;99.90;;;;;;5017597;28;20402;-67
2022/01/23 00:07:12;;;;;;;2.15;1.25;;;22.40;99.90;;;;;;5028934;28;20080;-67
2022/01/23 00:09:41;;;;;;;1.52;0.88;;;22.40;99.90;;;;;;5035781;28;20454;-67
2022/01/23 00:12:13;;;;;;;4.38;0.80;;;22.40;99.90;;;;;;5036245;28;20382;-67
2022/01/23 00:17:32;;;;;;;3.70;0.80;;;22.40;99.90;;;;;;5036565;28;20037;-68
2022/01/23 00:20:00;;;;;;;2.25;0.47;;;22.40;99.90;;;;;;5034499;28;20048;-67
2022/01/23 00:22:45;;;;;;;4.20;1.67;;;22.40;99.90;;;;;;5035997;28;20083;-66
2022/01/23 00:30:46;;;;;;;5.25;0.82;;;22.40;99.90;;;;;;5031419;28;20145;-66
2022/01/23 00:33:14;;;;;;;2.17;0.38;;;22.40;99.90;;;;;;5034720;28;20532;-66
2022/01/23 00:35:43;;;;;;;4.25;0.88;;;22.40;99.90;;;;;;5020527;28;20068;-66
2022/01/23 00:38:12;;;;;;;5.97;0.22;;;22.30;99.90;;;;;;5016269;28;20505;-66
2022/01/23 00:40:42;;;;;;;4.95;0.50;;;22.20;99.90;;;;;;5016812;28;20030;-66
2022/01/23 00:43:28;;;;;;;2.17;0.30;;;22.40;99.90;;;;;;5032241;28;20044;-66
2022/01/23 00:49:01;;;;;;;2.72;0.30;;;22.70;99.90;;;;;;5028023;28;20429;-67
2022/01/23 00:51:32;;;;;;;0.95;0.30;;;22.70;99.90;;;;;;5026483;28;20032;-68
2022/01/23 00:54:01;;;;;;;0.90;0.30;;;22.70;99.90;;;;;;5020155;28;20482;-65
2022/01/23 00:56:28;;;;;;;3.33;0.50;;;22.70;99.90;;;;;;5030103;28;20076;-65
2022/01/23 00:58:56;;;;;;;1.45;0.40;;;22.70;99.90;;;;;;5023459;28;20442;-65
2022/01/23 01:01:23;;;;;;;3.70;1.05;;;22.70;99.90;;;;;;5035702;28;20037;-65
2022/01/23 01:03:51;;;;;;;1.63;0.35;;;22.60;99.90;;;;;;5034650;28;20021;-65
2022/01/23 01:06:18;;;;;;;4.85;0.35;;;22.60;99.90;;;;;;5016036;28;20029;-65
2022/01/23 01:08:48;;;;;;;2.05;0.77;;;22.50;99.90;;;;;;5015451;28;20113;-65
2022/01/23 01:30:41;;;;;;;1.05;0.15;;;22.70;99.90;;;;;;5023154;28;20088;-65
2022/01/23 01:35:35;;;;;;;4.72;0.30;;;22.30;99.90;;;;;;5032832;28;20033;-66
2022/01/23 01:38:03;;;;;;;2.25;0.55;;;22.30;99.90;;;;;;5035005;28;20021;-65
2022/01/23 01:40:31;;;;;;;1.80;0.20;;;22.20;99.90;;;;;;5033342;28;20022;-65
2022/01/23 01:42:59;;;;;;;2.03;0.20;;;22.10;99.90;;;;;;5030793;28;20033;-66
2022/01/23 01:45:29;;;;;;;3.45;0.40;;;22.20;99.90;;;;;;5023229;28;20026;-67
2022/01/23 01:48:01;;;;;;;1.25;0.22;;;21.70;99.90;;;;;;5014789;28;20507;-68
2022/01/23 01:50:30;;;;;;;0.40;0.10;;;21.60;99.90;;;;;;5026195;28;20065;-65
2022/01/23 01:52:58;;;;;;;2.05;0.22;;;21.60;99.90;;;;;;5033479;28;20103;-65
2022/01/23 01:55:29;;;;;;;0.47;0.30;;;21.60;99.90;;;;;;5033510;28;20080;-65
2022/01/23 01:58:02;;;;;;;2.78;0.60;;;21.70;99.90;;;;;;5034744;28;20029;-65
2022/01/23 02:08:29;;;;;;;3.95;0.40;;;22.60;99.90;;;;;;5015551;28;20513;-65
2022/01/23 02:11:07;;;;;;;1.70;0.75;;;23.00;99.90;;;;;;5030068;28;20147;-65
2022/01/23 02:13:40;;;;;;;1.70;0.40;;;23.40;99.90;;;;;;5019740;28;20498;-68
2022/01/23 02:56:58;;;;;;;1.98;0.45;;;23.40;99.90;;;;;;5021170;28;20038;-67
2022/01/23 02:59:29;;;;;;;2.90;0.25;;;23.30;99.90;;;;;;5018421;28;20509;-67
2022/01/23 03:04:28;;;;;;;2.42;0.38;;;23.50;99.90;;;;;;5018855;28;20463;-67
2022/01/23 03:31:22;;;;;;;3.42;0.32;;;23.20;99.90;;;;;;5028664;28;20036;-66
2022/01/23 03:33:50;;;;;;;1.38;0.40;;;23.10;99.90;;;;;;5017222;28;20570;-65
2022/01/23 03:36:17;;;;;;;2.70;0.20;;;22.70;99.90;;;;;;5016144;28;20485;-65
2022/01/23 03:38:45;;;;;;;0.68;0.20;;;22.60;99.90;;;;;;5020031;28;20511;-66
2022/01/23 03:41:13;;;;;;;2.80;0.30;;;22.40;99.90;;;;;;5016645;28;20080;-67
2022/01/23 03:43:41;;;;;;;1.83;0.30;;;22.50;99.90;;;;;;5022053;28;20121;-66
2022/01/23 03:51:51;;;;;;;0.60;0.30;;;22.50;99.90;;;;;;5017345;28;20402;-67
2022/01/23 03:54:19;;;;;;;2.22;0.30;;;22.50;99.90;;;;;;5018566;28;20498;-67
2022/01/23 03:56:46;;;;;;;4.88;2.67;;;22.50;99.90;;;;;;5024000;28;20030;-68
2022/01/23 03:59:13;;;;;;;2.63;0.28;;;22.50;99.90;;;;;;5017628;28;20032;-65
2022/01/23 04:01:40;;;;;;;0.75;0.20;;;22.70;99.90;;;;;;5017322;28;20095;-67
2022/01/23 04:04:22;;;;;;;2.55;0.28;;;22.70;99.90;;;;;;5026235;28;20026;-66
2022/01/23 04:06:50;;;;;;;0.77;0.20;;;22.80;99.90;;;;;;5022454;28;20093;-67
2022/01/23 04:09:17;;;;;;;2.55;0.30;;;22.80;99.90;;;;;;5019373;28;20501;-67
2022/01/23 04:11:45;;;;;;;0.65;0.17;;;22.90;99.90;;;;;;5023968;28;20073;-68
2022/01/23 04:14:15;;;;;;;1.73;0.20;;;22.90;99.90;;;;;;5019787;28;20022;-69
2022/01/23 04:47:16;;;;;;;2.47;0.20;;;22.80;99.90;;;;;;5019937;28;20092;-67
2022/01/23 05:00:34;;;;;;;2.13;0.20;;;23.50;99.90;;;;;;5018353;28;20045;-66
2022/01/23 05:05:57;;;;;;;3.63;1.67;;;23.60;99.90;;;;;;5017770;28;20099;-66
2022/01/23 05:08:27;;;;;;;3.28;1.45;;;23.30;99.90;;;;;;5027023;28;20040;-66
2022/01/23 05:10:58;;;;;;;1.35;0.47;;;23.30;99.90;;;;;;5020672;28;20108;-66
2022/01/23 05:13:28;;;;;;;0.88;0.30;;;23.30;99.90;;;;;;5028622;28;20040;-66
2022/01/23 05:15:55;;;;;;;0.55;0.10;;;23.30;99.90;;;;;;5018340;28;20623;-66
2022/01/23 05:18:23;;;;;;;0.68;0.10;;;23.40;99.90;;;;;;5024104;28;20040;-65
2022/01/23 05:20:59;;;;;;;1.67;0.22;;;23.40;99.90;;;;;;5025338;28;20502;-69
2022/01/23 05:23:27;;;;;;;1.85;0.10;;;23.50;99.90;;;;;;5018083;28;20017;-67
2022/01/23 05:25:54;;;;;;;2.20;0.55;;;23.60;99.90;;;;;;5021880;28;20025;-67
2022/01/23 05:28:21;;;;;;;1.40;0.30;;;23.50;99.90;;;;;;5023235;28;20105;-69
2022/01/23 05:30:49;;;;;;;1.58;0.50;;;23.80;99.90;;;;;;5016395;28;20505;-67
2022/01/23 05:33:16;;;;;;;1.27;0.65;;;23.80;99.90;;;;;;5024828;28;20067;-68
2022/01/23 05:35:44;;;;;;;1.30;0.30;;;23.90;99.90;;;;;;5020598;28;20061;-67
2022/01/23 05:38:11;;;;;;;1.63;0.30;;;24.00;99.90;;;;;;5021332;28;20075;-67
2022/01/23 05:40:40;;;;;;;3.08;0.47;;;23.90;99.90;;;;;;5021038;28;20034;-66
2022/01/23 05:43:07;;;;;;;4.05;0.68;;;23.90;99.90;;;;;;5023865;28;20026;-67
2022/01/23 05:45:37;;;;;;;2.97;0.63;;;24.00;99.90;;;;;;5018888;28;20528;-66
2022/01/23 05:48:05;;;;;;;1.17;0.20;;;23.90;99.90;;;;;;5015435;28;20490;-66
2022/01/23 05:50:32;;;;;;;4.30;1.50;;;24.00;99.90;;;;;;5029912;28;20087;-67
2022/01/23 05:53:00;;;;;;;3.83;1.85;;;24.30;99.90;;;;;;5021819;28;20029;-67
2022/01/23 05:55:27;;;;;;;3.95;1.40;;;24.30;99.90;;;;;;5021566;28;20036;-68
2022/01/23 05:57:54;;;;;;;3.17;1.15;;;24.20;99.90;;;;;;5029762;28;20038;-66
2022/01/23 06:00:22;;;;;;;4.57;2.38;;;24.20;99.90;;;;;;5027109;28;20069;-66
2022/01/23 06:02:49;;;;;;;2.70;1.10;;;23.80;99.90;;;;;;5018382;28;20053;-66
2022/01/23 06:05:16;;;;;;;7.60;0.85;;;23.70;99.90;;;;;;5029332;28;20056;-67
2022/01/23 06:07:45;;;;;;;3.00;0.60;;;23.90;99.90;;;;;;5023427;28;20021;-66
2022/01/23 06:10:21;;;;;;;3.75;0.30;;;24.00;99.90;;;;;;5027550;28;20030;-66
2022/01/23 06:12:49;;;;;;;4.30;0.50;;;23.90;99.90;;;;;;5019207;28;20034;-64
2022/01/23 06:15:17;;;;;;;3.15;0.70;;;24.20;99.90;;;;;;5022774;28;20022;-63
2022/01/23 06:17:45;;;;;;;1.70;0.50;;;24.00;99.90;;;;;;5024539;28;20516;-63
2022/01/23 06:20:14;;;;;;;1.95;0.30;;;23.90;99.90;;;;;;5022964;28;20600;-63
2022/01/23 06:22:43;;;;;;;1.95;0.25;;;23.80;99.90;;;;;;5022392;28;20096;-63
2022/01/23 06:25:13;;;;;;;0.75;0.10;;;23.90;99.90;;;;;;5014134;28;20033;-63
2022/01/23 06:27:40;;;;;;;2.15;0.10;;;23.90;99.90;;;;;;5014462;28;20490;-63
2022/01/23 06:30:09;;;;;;;1.55;0.10;;;23.80;99.90;;;;;;5022447;28;20508;-64
2022/01/23 06:32:36;;;;;;;3.17;0.55;;;23.80;99.90;;;;;;5014369;28;20033;-64
2022/01/23 06:35:04;;;;;;;2.30;0.80;;;23.80;99.90;;;;;;5015000;28;20053;-65
2022/01/23 06:37:31;;;;;;;3.65;0.30;;;23.90;99.90;;;;;;5016247;28;20034;-64
2022/01/23 06:39:59;;;;;;;2.33;0.88;;;23.80;99.90;;;;;;5031004;28;20045;-64
2022/01/23 06:42:26;;;;;;;2.92;0.30;;;23.60;99.90;;;;;;5018930;28;20030;-64
2022/01/23 06:44:53;;;;;;;0.90;0.30;;;23.60;99.90;;;;;;5019991;28;20037;-65
2022/01/23 06:47:20;;;;;;;3.47;1.83;;;23.50;99.90;;;;;;5024049;28;20050;-65
2022/01/23 06:49:48;;;;;;;1.00;0.20;;;23.60;99.90;;;;;;5017649;28;20065;-65
2022/01/23 06:52:15;;;;;;;2.38;0.57;;;23.40;99.90;;;;;;5025419;28;20057;-66
2022/01/23 06:54:43;;;;;;;1.13;0.52;;;23.30;99.90;;;;;;5034958;28;20036;-67
2022/01/23 06:57:10;;;;;;;2.22;0.30;;;23.50;99.90;;;;;;5034791;28;20025;-66
2022/01/23 06:59:37;;;;;;;1.38;0.30;;;23.80;99.90;;;;;;5016589;28;20550;-66
2022/01/23 07:02:05;;;;;;;1.60;0.22;;;23.90;99.90;;;;;;5032133;28;20533;-67
2022/01/23 07:04:32;;;;;;;3.15;0.20;;;23.60;99.90;;;;;;5029247;28;20025;-65
2022/01/23 07:06:59;;;;;;;3.58;0.17;;;23.30;99.90;;;;;;5016717;28;20021;-65
2022/01/23 07:09:27;;;;;;;2.72;0.30;;;23.10;99.90;;;;;;5028126;28;20029;-65
2022/01/23 07:11:54;;;;;;;0.98;0.20;;;23.00;99.90;;;;;;5030572;28;20029;-65
2022/01/23 07:14:21;;;;;;;1.73;0.20;;;22.80;99.90;;;;;;5017521;28;20033;-65
2022/01/23 07:16:49;;;;;;;1.73;0.60;;;22.90;99.90;;;;;;5017036;28;20113;-66
2022/01/23 07:19:16;;;;;;;1.95;0.30;;;22.70;99.90;;;;;;5026009;28;20121;-66
2022/01/23 07:21:43;;;;;;;2.78;0.40;;;22.60;99.90;;;;;;5022470;28;20026;-66
2022/01/23 07:24:10;;;;;;;0.75;0.20;;;22.50;99.90;;;;;;5021851;28;20017;-66
2022/01/23 07:26:38;;;;;;;11.27;0.73;;;22.50;99.90;;;;;;5029653;28;20037;-65
2022/01/23 07:29:07;;;;;;;2.22;0.50;;;22.40;99.90;;;;;;5033396;28;20029;-65
2022/01/23 07:34:06;;;;;;;4.30;1.25;;;22.20;99.90;;;;;;5014033;28;20033;-65
2022/01/23 07:36:35;;;;;;;2.88;0.52;;;22.20;99.90;;;;;;5014804;28;20026;-65
2022/01/23 07:39:03;;;;;;;1.60;0.45;;;22.30;99.90;;;;;;5025670;28;20095;-65
2022/01/23 07:41:30;;;;;;;3.28;2.53;;;22.30;99.90;;;;;;5023302;28;20029;-66
2022/01/23 07:43:58;;;;;;;4.32;2.20;;;22.30;99.90;;;;;;5021498;28;20032;-66
2022/01/23 07:46:26;;;;;;;2.95;0.93;;;22.30;99.90;;;;;;5026235;28;20022;-66
2022/01/23 07:48:53;;;;;;;2.03;0.30;;;22.20;99.90;;;;;;5027832;28;20490;-65
2022/01/23 07:51:20;;;;;;;5.50;0.63;;;22.20;99.90;;;;;;5013353;28;20513;-65
2022/01/23 07:53:48;;;;;;;2.17;0.52;;;22.20;99.90;;;;;;5016501;28;20482;-65
2022/01/23 07:56:15;;;;;;;2.60;0.50;;;22.20;99.90;;;;;;5023002;28;20071;-65
2022/01/23 07:58:43;;;;;;;1.48;0.22;;;22.10;99.90;;;;;;5014677;28;20044;-67
2022/01/23 08:01:10;;;;;;;2.17;0.30;;;22.20;99.90;;;;;;5018526;28;20399;-64
2022/01/23 08:03:41;;;;;;;1.27;0.28;;;22.20;99.90;;;;;;5027358;28;20414;-64
2022/01/23 08:06:11;;;;;;;2.65;0.52;;;22.20;99.90;;;;;;5022547;28;20037;-66
2022/01/23 08:08:39;;;;;;;2.60;0.63;;;22.10;99.90;;;;;;5013848;28;20041;-66
2022/01/23 08:11:07;;;;;;;2.95;0.88;;;22.10;99.90;;;;;;5012320;28;20486;-64
2022/01/23 08:13:35;;;;;;;1.75;0.45;;;22.10;99.90;;;;;;5020321;28;20021;-64
2022/01/23 08:16:02;;;;;;;3.88;0.80;;;22.10;99.90;;;;;;5032468;28;20021;-64
2022/01/23 08:18:29;;;;;;;1.23;0.38;;;22.10;99.90;;;;;;5026899;28;20497;-64
2022/01/23 08:20:56;;;;;;;4.30;1.20;;;22.00;99.90;;;;;;5020039;28;20040;-64
2022/01/23 08:23:24;;;;;;;4.28;0.32;;;22.00;99.90;;;;;;5027162;28;20048;-65
2022/01/23 08:25:51;;;;;;;2.90;0.50;;;22.00;99.90;;;;;;5017906;28;20032;-65
2022/01/23 08:28:18;;;;;;;3.90;0.45;;;21.80;99.90;;;;;;5023516;28;20499;-65
2022/01/23 08:30:46;;;;;;;2.88;0.30;;;21.70;99.90;;;;;;5016916;28;20026;-64
2022/01/23 08:33:13;;;;;;;3.13;0.30;;;21.50;99.90;;;;;;5033624;28;20453;-64
2022/01/23 08:35:43;;;;;;;1.40;0.20;;;21.30;99.90;;;;;;5031132;28;20496;-64
2022/01/23 08:38:13;;;;;;;2.92;0.22;;;21.20;99.90;;;;;;5028194;28;20402;-65
2022/01/23 08:43:09;;;;;;;3.33;0.40;;;20.90;99.90;;;;;;5028460;28;20053;-64
2022/01/23 08:45:37;;;;;;;1.80;0.40;;;20.80;99.90;;;;;;5019754;28;20030;-64
2022/01/23 08:48:05;;;;;;;3.92;0.45;;;20.70;99.90;;;;;;5018890;28;20050;-64
2022/01/23 08:50:33;;;;;;;4.00;1.05;;;20.70;99.90;;;;;;5032940;28;20025;-64
2022/01/23 08:53:00;;;;;;;2.13;0.30;;;20.80;99.90;;;;;;5038703;28;20143;-64
2022/01/23 08:55:32;;;;;;;5.45;0.88;;;20.80;99.90;;;;;;5032748;28;20069;-64
2022/01/23 08:57:59;;;;;;;2.08;0.38;;;20.70;99.90;;;;;;5039646;28;20088;-64
2022/01/23 09:00:27;;;;;;;8.27;0.77;;;20.60;99.90;;;;;;5016642;28;20030;-64
2022/01/23 09:02:55;;;;;;;3.97;0.50;;;20.60;99.90;;;;;;5016863;28;20478;-64
2022/01/23 09:05:23;;;;;;;2.80;0.60;;;20.60;99.90;;;;;;5017459;28;20386;-64
2022/01/23 09:07:51;;;;;;;3.42;0.38;;;20.60;99.90;;;;;;5016862;28;20114;-64
2022/01/23 09:10:25;;;;;;;2.45;0.40;;;20.50;99.90;;;;;;5017358;28;20022;-64
2022/01/23 09:13:06;;;;;;;4.40;0.73;;;20.50;99.90;;;;;;5022378;28;20036;-64
2022/01/23 09:15:34;;;;;;;1.55;0.50;;;20.50;99.90;;;;;;5026722;28;20037;-64
2022/01/23 09:18:03;;;;;;;1.40;0.50;;;20.50;99.90;;;;;;5018535;28;20034;-64
2022/01/23 09:20:31;;;;;;;2.17;0.50;;;20.50;99.90;;;;;;5017005;28;20482;-64
2022/01/23 09:22:58;;;;;;;1.55;0.35;;;20.60;99.90;;;;;;5016296;28;20037;-64
2022/01/23 09:25:26;;;;;;;1.30;0.30;;;20.60;99.90;;;;;;5021555;28;20026;-64
2022/01/23 09:27:55;;;;;;;1.67;0.50;;;20.60;99.90;;;;;;5023876;28;20030;-64
2022/01/23 09:30:22;;;;;;;0.82;0.20;;;20.70;99.90;;;;;;5016618;28;20033;-64
2022/01/23 09:32:50;;;;;;;1.70;0.35;;;20.70;99.90;;;;;;5016863;28;20033;-64
2022/01/23 09:35:18;;;;;;;3.08;0.50;;;20.70;99.90;;;;;;5032890;28;20454;-64
2022/01/23 09:37:46;;;;;;;3.03;0.70;;;20.60;99.90;;;;;;5024271;28;20079;-65
2022/01/23 09:40:14;;;;;;;2.55;0.20;;;20.60;99.90;;;;;;5025424;28;20085;-64
2022/01/23 09:42:55;;;;;;;0.93;0.30;;;20.60;99.90;;;;;;5016146;28;20064;-64
2022/01/23 09:45:24;;;;;;;2.10;0.40;;;20.50;99.90;;;;;;5018701;28;20064;-64
2022/01/23 09:47:55;;;;;;;2.55;0.40;;;20.50;99.90;;;;;;5034088;28;20049;-64
2022/01/23 09:50:22;;;;;;;2.40;0.25;;;20.50;99.90;;;;;;5031282;28;20030;-64
2022/01/23 09:52:54;;;;;;;0.93;0.20;;;20.60;99.90;;;;;;5027699;28;20033;-64
2022/01/23 09:55:22;;;;;;;1.58;0.40;;;20.60;99.90;;;;;;5015207;28;20067;-64
2022/01/23 09:57:51;;;;;;;0.45;0.22;;;20.60;99.90;;;;;;5015969;28;20041;-64
2022/01/23 10:00:21;;;;;;;0.20;0.10;;;20.60;99.90;;;;;;5015702;28;20502;-65
2022/01/23 10:02:50;;;;;;;0.20;0.10;;;20.60;99.90;;;;;;5016939;28;20033;-64
2022/01/23 10:05:18;;;;;;;2.13;0.32;;;20.60;99.90;;;;;;5017919;28;20041;-64
2022/01/23 10:07:46;;;;;;;1.10;0.10;;;20.60;99.90;;;;;;5022737;28;20116;-64
2022/01/23 10:10:21;;;;;;;0.43;0.13;;;20.50;99.90;;;;;;5016567;28;20586;-64
2022/01/23 10:12:51;;;;;;;0.95;0.08;;;20.50;99.90;;;;;;5034357;28;20017;-65
2022/01/23 10:15:20;;;;;;;1.75;0.10;;;20.40;99.90;;;;;;5027081;28;20018;-65
2022/01/23 10:17:48;;;;;;;1.35;0.20;;;20.40;99.90;;;;;;5015462;28;20080;-64
2022/01/23 10:20:16;;;;;;;0.40;0.10;;;20.30;99.90;;;;;;5014836;28;20034;-65
2022/01/23 10:22:47;;;;;;;0.65;0.10;;;20.20;99.90;;;;;;5023825;28;20098;-65
2022/01/23 10:25:18;;;;;;;0.55;0.20;;;20.20;99.90;;;;;;5030183;28;20053;-64
2022/01/23 10:28:06;;;;;;;0.40;0.10;;;20.10;99.90;;;;;;5031950;28;20033;-64
2022/01/23 10:30:39;;;;;;;3.30;0.70;;;19.70;99.90;;;;;;5022619;28;20033;-64
2022/01/23 10:33:16;;;;;;;1.87;0.20;;;19.50;99.90;;;;;;5030193;28;20060;-64
2022/01/23 10:36:05;;;;;;;0.88;0.30;;;19.30;99.90;;;;;;5030124;28;20038;-64
2022/01/23 10:38:36;;;;;;;0.85;0.35;;;19.30;99.90;;;;;;5026721;28;20025;-65
2022/01/23 10:49:54;;;;;;;1.90;0.30;;;19.50;99.90;;;;;;5030804;28;20102;-64
2022/01/23 10:52:29;;;;;;;1.65;0.40;;;19.50;99.90;;;;;;5029185;28;20053;-63
2022/01/23 10:54:57;;;;;;;1.77;0.30;;;19.70;99.90;;;;;;5016647;28;20042;-64
2022/01/23 10:57:33;;;;;;;2.47;0.38;;;19.70;99.90;;;;;;5018186;28;20034;-64
2022/01/23 11:00:03;;;;;;;2.83;0.55;;;19.80;99.90;;;;;;5018345;28;20038;-64
2022/01/23 11:02:30;;;;;;;0.80;0.50;;;19.80;99.90;;;;;;5018882;28;20053;-65
2022/01/23 11:05:10;;;;;;;3.50;0.60;;;19.70;99.90;;;;;;5023315;28;20022;-65
2022/01/23 11:07:42;;;;;;;4.97;0.50;;;19.80;99.90;;;;;;5019959;28;20049;-65
2022/01/23 11:10:13;;;;;;;1.45;0.30;;;19.70;99.90;;;;;;5031052;28;20389;-65
2022/01/23 11:18:14;;;;;;;1.23;0.40;;;19.70;99.90;;;;;;5030032;28;20082;-64
2022/01/23 11:20:49;;;;;;;1.60;0.30;;;19.70;99.90;;;;;;5027738;28;20028;-66
2022/01/23 11:23:19;;;;;;;1.25;0.13;;;19.60;99.90;;;;;;5020980;28;20052;-66
2022/01/23 11:26:07;;;;;;;2.15;0.20;;;19.60;99.90;;;;;;5031960;28;20079;-64
2022/01/23 11:28:40;;;;;;;1.77;0.30;;;19.70;99.90;;;;;;5021518;28;20060;-65
2022/01/23 11:31:10;;;;;;;2.83;0.30;;;19.70;99.90;;;;;;5028832;28;20139;-65
2022/01/23 11:33:38;;;;;;;1.88;0.30;;;19.70;99.90;;;;;;5018619;28;20064;-65
2022/01/23 11:36:07;;;;;;;2.25;0.43;;;19.60;99.90;;;;;;5015300;28;20402;-64
2022/01/23 11:38:36;;;;;;;3.72;0.50;;;19.50;99.90;;;;;;5019185;28;20052;-64
2022/01/23 11:55:31;;;;;;;4.15;0.63;;;19.30;99.90;;;;;;5017365;28;20080;-63
2022/01/23 11:57:58;;;;;;;4.60;0.40;;;19.20;99.90;;;;;;5026427;28;20498;-63
2022/01/23 12:00:30;;;;;;;1.75;0.20;;;19.30;99.90;;;;;;5026606;28;20033;-64
2022/01/23 12:03:19;;;;;;;4.15;0.60;;;19.20;99.90;;;;;;5027215;28;20029;-64
2022/01/23 12:05:48;;;;;;;5.60;0.68;;;19.30;99.90;;;;;;5030747;28;20523;-64
2022/01/23 12:08:35;;;;;;;2.58;0.50;;;19.20;99.90;;;;;;5027995;28;20025;-64
2022/01/23 12:11:56;;;;;;;3.15;0.38;;;19.30;99.90;;;;;;5021432;28;20025;-64
2022/01/23 12:17:01;;;;;;;1.58;0.40;;;19.40;99.90;;;;;;5030664;28;20071;-64
2022/01/23 12:19:31;;;;;;;0.40;0.15;;;19.40;99.90;;;;;;5036962;28;20037;-65
2022/01/23 12:22:19;;;;;;;0.73;0.20;;;19.50;99.90;;;;;;5026826;28;20029;-65
2022/01/23 12:24:52;;;;;;;3.03;0.40;;;19.50;99.90;;;;;;5022219;28;20030;-65
2022/01/23 12:27:31;;;;;;;4.57;0.75;;;19.50;99.90;;;;;;5019959;28;20033;-65
2022/01/23 12:30:28;;;;;;;3.42;0.50;;;19.50;99.90;;;;;;5031327;28;20055;-63
2022/01/23 12:33:28;;;;;;;2.00;0.30;;;19.50;99.90;;;;;;5025321;28;20033;-62
2022/01/23 12:36:07;;;;;;;2.95;0.43;;;19.50;99.90;;;;;;5025934;28;20036;-63
2022/01/23 12:38:54;;;;;;;4.70;0.60;;;19.50;99.90;;;;;;5028460;28;20136;-63
2022/01/23 12:41:25;;;;;;;3.13;0.30;;;19.50;99.90;;;;;;5023968;28;20032;-64
2022/01/23 12:43:57;;;;;;;1.65;0.57;;;19.50;99.90;;;;;;5033058;28;20022;-64
2022/01/23 12:46:42;;;;;;;1.98;0.30;;;19.50;99.90;;;;;;5035831;28;20017;-64
2022/01/23 12:49:38;;;;;;;2.05;0.52;;;19.40;99.90;;;;;;5034590;28;20099;-64
2022/01/23 12:52:08;;;;;;;2.65;0.28;;;19.40;99.90;;;;;;5032762;28;20029;-64
2022/01/23 12:54:48;;;;;;;4.15;0.55;;;19.50;99.90;;;;;;5026575;28;20114;-64
2022/01/23 12:57:23;;;;;;;2.30;0.20;;;19.50;99.90;;;;;;5027052;28;20108;-64
2022/01/23 12:59:57;;;;;;;1.45;0.20;;;19.60;99.90;;;;;;5033973;28;20030;-64
2022/01/23 13:02:30;;;;;;;2.40;0.50;;;19.60;99.90;;;;;;5023525;28;20428;-64
2022/01/23 13:04:58;;;;;;;2.45;0.70;;;19.60;99.90;;;;;;5022751;28;20444;-64
2022/01/23 13:07:47;;;;;;;2.88;0.40;;;19.60;99.90;;;;;;5034126;28;20041;-64
2022/01/23 13:13:22;;;;;;;1.65;0.75;;;19.60;99.90;;;;;;5018853;28;20048;-64
2022/01/23 13:16:17;;;;;;;2.40;0.30;;;19.50;99.90;;;;;;5029247;28;20033;-64
2022/01/23 13:19:16;;;;;;;1.52;0.30;;;19.60;99.90;;;;;;5022348;28;20045;-64
2022/01/23 13:28:16;;;;;;;1.30;0.20;;;19.60;99.90;;;;;;5021255;28;20461;-64
2022/01/23 13:30:19;;;;;;;0.90;0.45;;;19.70;99.90;;;;;;5019707;28;20133;-64
2022/01/23 13:32:49;;;;;;;0.85;0.25;;;19.70;99.90;;;;;;5025066;28;20504;-64
2022/01/23 13:35:19;;;;;;;4.95;0.95;;;19.70;99.90;;;;;;5020978;28;20022;-63
2022/01/23 13:37:56;;;;;;;3.60;0.47;;;19.70;99.90;;;;;;5020953;28;20036;-63
2022/01/23 13:40:33;;;;;;;3.42;0.45;;;19.60;99.90;;;;;;5023475;28;20033;-63
2022/01/23 13:52:01;;;;;;;2.72;0.52;;;19.50;99.90;;;;;;5028732;28;20046;-63
2022/01/23 13:59:57;;;;;;;3.33;0.50;;;19.70;99.90;;;;;;5014905;28;20049;-63
2022/01/23 14:02:28;;;;;;;2.38;0.38;;;19.60;99.90;;;;;;5024453;28;20080;-63
2022/01/23 14:05:03;;;;;;;2.47;0.32;;;19.70;99.90;;;;;;5022017;28;20068;-63
2022/01/23 14:07:31;;;;;;;1.83;0.57;;;19.60;99.90;;;;;;5014345;28;20036;-64
2022/01/23 14:10:10;;;;;;;2.15;0.73;;;19.60;99.90;;;;;;5018925;28;20433;-64
2022/01/23 14:12:37;;;;;;;3.85;0.50;;;19.60;99.90;;;;;;5023351;28;20026;-64
2022/01/23 14:15:10;;;;;;;1.52;0.52;;;19.50;99.90;;;;;;5022322;28;20521;-64
2022/01/23 14:17:39;;;;;;;2.85;0.55;;;19.40;99.90;;;;;;5025663;28;20056;-64
2022/01/23 14:20:17;;;;;;;0.93;0.30;;;19.40;99.90;;;;;;5014900;28;20128;-64
2022/01/23 14:22:47;;;;;;;2.10;0.40;;;19.30;99.90;;;;;;5029105;28;20048;-64
2022/01/23 14:25:21;;;;;;;3.80;0.70;;;19.30;99.90;;;;;;5029004;28;20026;-64
2022/01/23 14:28:06;;;;;;;3.30;0.60;;;19.30;99.90;;;;;;5021683;28;20033;-64
2022/01/23 14:30:41;;;;;;;1.23;0.40;;;19.40;99.90;;;;;;5020568;28;20091;-64
2022/01/23 14:33:14;;;;;;;2.67;0.40;;;19.30;99.90;;;;;;5018670;28;20026;-64
2022/01/23 14:35:41;;;;;;;3.90;0.45;;;19.30;99.90;;;;;;5021735;28;20017;-64
2022/01/23 14:38:11;;;;;;;1.65;0.68;;;19.30;99.90;;;;;;5019863;28;20053;-64
2022/01/23 14:40:40;;;;;;;2.20;0.88;;;19.30;99.90;;;;;;5017711;28;20397;-64
2022/01/23 14:43:13;;;;;;;0.85;0.40;;;19.30;99.90;;;;;;5014929;28;20030;-64
2022/01/23 14:45:47;;;;;;;1.45;0.30;;;19.30;99.90;;;;;;5022616;28;20028;-64
2022/01/23 14:48:15;;;;;;;2.10;0.60;;;19.40;99.90;;;;;;5024918;28;20049;-64
2022/01/23 14:50:47;;;;;;;3.42;0.88;;;19.30;99.90;;;;;;5019564;28;20169;-64
2022/01/23 14:53:21;;;;;;;4.88;1.02;;;19.30;99.90;;;;;;5026648;28;20541;-64
2022/01/23 14:55:55;;;;;;;4.03;0.60;;;19.30;99.90;;;;;;5021120;28;20095;-64
2022/01/23 14:58:24;;;;;;;;;;;19.40;99.90;;;;;;5018892;28;20029;-64
2022/01/23 15:00:56;;;;;;;5.38;0.63;;;19.30;99.90;;;;;;5014898;28;19909;-63
2022/01/23 15:03:25;;;;;;;2.78;0.52;;;19.40;99.90;;;;;;5032268;28;20025;-64
2022/01/23 15:05:53;;;;;;;2.42;0.50;;;19.50;99.90;;;;;;5022129;28;20558;-63
2022/01/23 15:08:24;;;;;;;2.13;0.40;;;19.50;99.90;;;;;;5013942;28;20030;-64
2022/01/23 15:10:54;;;;;;;2.00;0.50;;;19.50;99.90;;;;;;5023289;28;20017;-64
2022/01/23 15:13:23;;;;;;;1.98;0.35;;;19.50;99.90;;;;;;5016127;28;20025;-64
2022/01/23 15:15:52;;;;;;;2.42;0.40;;;19.60;99.90;;;;;;5020141;28;20513;-63
2022/01/23 15:18:20;;;;;;;0.93;0.57;;;19.50;99.90;;;;;;5017038;28;20022;-63
2022/01/23 15:20:48;;;;;;;1.80;0.50;;;19.50;99.90;;;;;;5023891;28;20487;-64
2022/01/23 15:23:16;;;;;;;2.15;0.85;;;19.60;99.90;;;;;;5020788;28;20030;-64
2022/01/23 15:25:45;;;;;;;3.03;0.47;;;19.60;99.90;;;;;;5023861;28;20036;-64
2022/01/23 15:28:13;;;;;;;2.40;0.63;;;19.50;99.90;;;;;;5013843;28;20029;-64
2022/01/23 15:30:42;;;;;;;4.68;2.47;;;19.50;99.90;;;;;;5027966;28;20034;-64
2022/01/23 15:33:09;;;;;;;6.25;1.38;;;19.40;99.90;;;;;;5024672;28;20037;-64
2022/01/23 15:35:47;;;;;;;5.20;1.42;;;19.40;99.90;;;;;;5016772;28;20041;-64
2022/01/23 15:38:19;;;;;;;3.33;1.05;;;19.40;99.90;;;;;;5013246;28;20029;-64
2022/01/23 15:40:48;;;;;;;1.77;0.80;;;19.40;99.90;;;;;;5026447;28;20046;-64
2022/01/23 15:43:16;;;;;;;2.78;0.88;;;19.40;99.90;;;;;;5029310;28;20033;-64
2022/01/23 15:45:45;;;;;;;2.67;1.02;;;19.30;99.90;;;;;;5020567;28;20034;-64
2022/01/23 15:48:13;;;;;;;2.90;0.52;;;19.30;99.90;;;;;;5017408;28;20049;-64
2022/01/23 15:50:42;;;;;;;3.20;0.70;;;19.30;99.90;;;;;;5016436;28;20037;-64
2022/01/23 15:53:10;;;;;;;5.07;0.77;;;19.20;99.90;;;;;;5013136;28;20673;-64
2022/01/23 15:55:37;;;;;;;3.95;0.60;;;19.20;99.90;;;;;;5021248;28;20060;-64
2022/01/23 15:58:05;;;;;;;2.63;0.52;;;19.00;99.90;;;;;;5024476;28;20567;-64
2022/01/23 16:00:33;;;;;;;2.58;0.50;;;19.10;99.90;;;;;;5018076;28;20117;-64
2022/01/23 16:03:00;;;;;;;3.33;0.95;;;19.00;99.90;;;;;;5020555;28;20075;-64
2022/01/23 16:05:28;;;;;;;2.92;0.43;;;19.10;99.90;;;;;;5013795;28;20045;-64
2022/01/23 16:07:55;;;;;;;3.95;0.63;;;19.10;99.90;;;;;;5021386;28;20046;-64
2022/01/23 16:10:22;;;;;;;4.88;0.57;;;19.20;99.90;;;;;;5014717;28;20018;-64
2022/01/23 16:12:50;;;;;;;4.53;1.17;;;19.20;99.90;;;;;;5015932;28;20060;-64
2022/01/23 16:15:17;;;;;;;1.95;0.90;;;19.20;99.90;;;;;;5019534;28;20052;-64
2022/01/23 16:17:47;;;;;;;3.72;0.50;;;19.20;99.90;;;;;;5017620;28;20091;-64
2022/01/23 16:20:16;;;;;;;2.33;0.68;;;19.10;99.90;;;;;;5013469;28;20558;-64
2022/01/23 16:22:48;;;;;;;2.55;0.57;;;19.20;99.90;;;;;;5015266;28;20026;-64
2022/01/23 16:25:18;;;;;;;1.27;0.47;;;19.20;99.90;;;;;;5020888;28;20026;-64
2022/01/23 16:27:45;;;;;;;3.97;0.50;;;19.20;99.90;;;;;;5020866;28;20497;-64
2022/01/23 16:30:13;;;;;;;2.83;0.40;;;19.30;99.90;;;;;;5018202;28;20034;-64
2022/01/23 16:32:40;;;;;;;4.05;1.25;;;19.30;99.90;;;;;;5025126;28;20037;-63
2022/01/23 16:35:08;;;;;;;4.55;0.60;;;19.30;99.90;;;;;;5016822;28;20028;-64
2022/01/23 16:37:35;;;;;;;3.35;0.70;;;19.20;99.90;;;;;;5024037;28;20061;-65
2022/01/23 16:40:04;;;;;;;3.20;0.40;;;19.20;99.90;;;;;;5024989;28;20112;-65
2022/01/23 16:42:31;;;;;;;5.97;0.80;;;19.30;99.90;;;;;;5012686;28;20057;-65
2022/01/23 16:44:59;;;;;;;3.42;0.77;;;19.20;99.90;;;;;;5019623;28;20103;-65